Terminal Aerodrome Forecast
Issued by NWS Sterling, VA

Current Version | Previous Version | Text Only | Print | Product List | Glossary Off
Versions: 1 2 3 4 5 6 7 8 9 10 11 12 13 14 15 16 17 18 19 20 21 22

000
FTUS41 KLWX 200536
TAFDCA
TAF
KDCA 200536Z 2006/2106 32008KT P6SM SCT250
     FM201800 30005KT P6SM BKN110
     FM202300 17004KT P6SM BKN080
     FM210400 15004KT 6SM -SHRA BR OVC050=

USA.gov is the U.S. government's official web portal to all federal, state and local government web resources and services.